createdAt,value
2018-05-17T00:00:57.723Z,100730.21
2018-05-17T00:03:27.100Z,100726.22
2018-05-17T00:05:56.430Z,100732.95
2018-05-17T00:08:25.752Z,100739.00
2018-05-17T00:10:55.105Z,100738.58
2018-05-17T00:13:24.463Z,100740.70
2018-05-17T00:15:53.777Z,100745.94
2018-05-17T00:18:23.916Z,100751.61
2018-05-17T00:20:54.816Z,100736.16
2018-05-17T00:23:24.441Z,100745.22
2018-05-17T00:25:53.793Z,100741.13
2018-05-17T00:28:23.092Z,100739.78
2018-05-17T00:30:52.424Z,100748.78
2018-05-17T00:33:22.468Z,100746.66
2018-05-17T00:35:51.800Z,100752.52
2018-05-17T00:38:21.360Z,100753.19
2018-05-17T00:40:50.848Z,100749.55
2018-05-17T00:43:20.172Z,100751.05
2018-05-17T00:45:49.481Z,100743.80
2018-05-17T00:48:18.813Z,100749.06
2018-05-17T00:50:54.888Z,100752.31
2018-05-17T00:53:32.564Z,100752.03
2018-05-17T00:56:03.028Z,100752.69
2018-05-17T00:58:32.354Z,100754.38
2018-05-17T01:01:01.681Z,100755.13
2018-05-17T01:03:30.993Z,100748.77
2018-05-17T01:06:00.301Z,100750.86
2018-05-17T01:08:30.389Z,100752.07
2018-05-17T01:10:59.741Z,100750.32
2018-05-17T01:13:29.851Z,100754.67
2018-05-17T01:15:59.960Z,100751.23
2018-05-17T01:18:29.266Z,100747.89
2018-05-17T01:20:59.359Z,100758.41
2018-05-17T01:23:28.732Z,100756.18
2018-05-17T01:25:58.052Z,100753.62
2018-05-17T01:28:27.372Z,100756.07
2018-05-17T01:30:57.813Z,100762.09
2018-05-17T01:33:27.142Z,100766.41
2018-05-17T01:35:57.205Z,100763.89
2018-05-17T01:38:27.489Z,100766.41
2018-05-17T01:40:57.555Z,100774.96
2018-05-17T01:43:27.049Z,100766.20
2018-05-17T01:45:56.400Z,100766.81
2018-05-17T01:48:25.716Z,100770.23
2018-05-17T01:50:55.841Z,100769.52
2018-05-17T01:53:25.937Z,100762.92
2018-05-17T01:55:55.272Z,100766.89
2018-05-17T01:58:25.369Z,100771.30
2018-05-17T02:00:54.678Z,100777.77
2018-05-17T02:03:24.782Z,100775.91
2018-05-17T02:05:54.129Z,100784.68
2018-05-17T02:08:23.433Z,100781.63
2018-05-17T02:10:52.914Z,100782.90
2018-05-17T02:13:23.012Z,100780.85
2018-05-17T02:15:52.349Z,100789.62
2018-05-17T02:18:22.465Z,100781.47
2018-05-17T02:20:52.570Z,100788.58
2018-05-17T02:23:21.882Z,100776.07
2018-05-17T02:25:51.982Z,100781.66
2018-05-17T02:28:21.336Z,100785.64
2018-05-17T02:30:50.659Z,100786.47
2018-05-17T02:33:19.980Z,100790.38
2018-05-17T02:35:49.351Z,100786.63
2018-05-17T02:38:18.676Z,100787.28
2018-05-17T02:40:48.022Z,100791.16
2018-05-17T02:43:18.112Z,100789.03
2018-05-17T02:45:47.432Z,100788.77
2018-05-17T02:48:16.780Z,100791.19
2018-05-17T02:50:46.102Z,100792.03
2018-05-17T02:53:15.405Z,100793.05
2018-05-17T02:55:44.738Z,100789.14
2018-05-17T02:58:14.046Z,100793.58
2018-05-17T03:00:43.443Z,100795.67
2018-05-17T03:03:12.787Z,100790.41
2018-05-17T03:05:42.762Z,100790.84
2018-05-17T03:08:12.163Z,100788.66
2018-05-17T03:10:41.494Z,100793.97
2018-05-17T03:13:11.578Z,100798.00
2018-05-17T03:15:40.906Z,100798.60
2018-05-17T03:18:10.998Z,100806.42
2018-05-17T03:20:40.322Z,100804.24
2018-05-17T03:23:09.660Z,100806.45
2018-05-17T03:25:38.989Z,100809.96
2018-05-17T03:28:08.314Z,100813.12
2018-05-17T03:30:38.610Z,100811.34
2018-05-17T03:33:07.942Z,100811.97
2018-05-17T03:35:37.273Z,100810.75
2018-05-17T03:38:06.605Z,100808.41
2018-05-17T03:40:35.943Z,100810.27
2018-05-17T03:43:05.260Z,100809.16
2018-05-17T03:45:34.592Z,100808.84
2018-05-17T03:48:04.683Z,100809.78
2018-05-17T03:50:34.041Z,100811.59
2018-05-17T03:53:03.359Z,100808.23
2018-05-17T03:55:34.147Z,100809.15
2018-05-17T03:58:04.007Z,100811.62
2018-05-17T04:00:51.136Z,100811.27
2018-05-17T04:06:43.094Z,100807.29
2018-05-17T04:09:12.445Z,100811.81
2018-05-17T04:11:42.529Z,100811.89
2018-05-17T04:14:11.968Z,100809.45
2018-05-17T04:16:41.293Z,100815.98
2018-05-17T04:19:10.610Z,100809.55
2018-05-17T04:21:40.150Z,100818.80
2018-05-17T04:24:09.460Z,100816.64
2018-05-17T04:26:38.774Z,100824.05
2018-05-17T04:29:08.189Z,100821.55
2018-05-17T04:31:37.439Z,100827.22
2018-05-17T04:34:06.794Z,100826.70
2018-05-17T04:36:36.911Z,100833.95
2018-05-17T04:39:06.252Z,100831.13
2018-05-17T04:41:35.600Z,100836.91
2018-05-17T04:44:04.934Z,100831.34
2018-05-17T04:46:35.045Z,100830.40
2018-05-17T04:49:05.124Z,100829.95
2018-05-17T04:51:34.484Z,100836.45
2018-05-17T04:54:04.569Z,100830.71
2018-05-17T04:56:33.890Z,100833.87
2018-05-17T04:59:04.057Z,100831.52
2018-05-17T05:01:41.271Z,100836.34
2018-05-17T05:04:10.600Z,100833.25
2018-05-17T05:06:40.719Z,100831.52
2018-05-17T05:09:10.039Z,100826.33
2018-05-17T05:11:40.139Z,100830.47
2018-05-17T05:14:09.465Z,100823.18
2018-05-17T05:16:38.937Z,100831.76
2018-05-17T05:19:08.248Z,100832.11
2018-05-17T05:21:37.645Z,100838.77
2018-05-17T05:24:06.969Z,100835.09
2018-05-17T05:26:37.058Z,100830.22
2018-05-17T05:29:06.385Z,100841.91
2018-05-17T05:31:35.731Z,100839.81
2018-05-17T05:34:05.048Z,100833.67
2018-05-17T05:36:34.376Z,100832.42
2018-05-17T05:39:03.694Z,100832.89
2018-05-17T05:41:33.786Z,100837.45
2018-05-17T05:44:03.128Z,100846.97
2018-05-17T05:46:33.197Z,100850.73
2018-05-17T05:49:02.554Z,100851.95
2018-05-17T05:51:32.618Z,100850.79
2018-05-17T05:54:01.983Z,100851.17
2018-05-17T05:56:32.064Z,100853.09
2018-05-17T05:59:01.392Z,100857.45
2018-05-17T06:01:31.509Z,100859.02
2018-05-17T06:04:00.835Z,100857.86
2018-05-17T06:06:30.138Z,100857.06
2018-05-17T06:08:59.471Z,100856.02
2018-05-17T06:11:29.652Z,100852.01
2018-05-17T06:13:59.142Z,100859.55
2018-05-17T06:16:28.485Z,100849.23
2018-05-17T06:18:57.792Z,100859.30
2018-05-17T06:21:27.110Z,100862.91
2018-05-17T06:23:56.444Z,100862.23
2018-05-17T06:26:25.769Z,100862.05
2018-05-17T06:28:55.846Z,100864.97
2018-05-17T06:31:25.193Z,100853.64
2018-05-17T06:33:55.299Z,100862.73
2018-05-17T06:36:24.620Z,100866.63
2018-05-17T06:38:54.704Z,100865.05
2018-05-17T06:41:24.033Z,100865.16
2018-05-17T06:43:54.167Z,100865.55
2018-05-17T06:46:23.473Z,100865.77
2018-05-17T06:48:53.563Z,100867.59
2018-05-17T06:51:22.888Z,100874.41
2018-05-17T06:53:52.989Z,100869.44
2018-05-17T06:56:22.302Z,100867.70
2018-05-17T06:58:52.422Z,100873.20
2018-05-17T07:01:21.760Z,100871.92
2018-05-17T07:03:51.086Z,100875.95
2018-05-17T07:06:20.400Z,100869.73
2018-05-17T07:08:49.702Z,100874.33
2018-05-17T07:11:19.031Z,100867.98
2018-05-17T07:13:48.354Z,100874.22
2018-05-17T07:16:18.473Z,100866.27
2018-05-17T07:18:48.651Z,100866.53
2018-05-17T07:21:17.842Z,100861.78
2018-05-17T07:23:47.173Z,100867.63
2018-05-17T07:26:16.508Z,100861.22
2018-05-17T07:28:46.601Z,100867.52
2018-05-17T07:31:16.110Z,100867.20
2018-05-17T07:33:45.370Z,100870.16
2018-05-17T07:36:14.695Z,100884.17
2018-05-17T07:38:44.041Z,100881.53
2018-05-17T07:41:14.125Z,100883.36
2018-05-17T07:43:43.465Z,100879.61
2018-05-17T07:46:13.563Z,100882.20
2018-05-17T07:48:42.884Z,100879.34
2018-05-17T07:51:12.957Z,100883.38
2018-05-17T07:53:42.302Z,100879.45
2018-05-17T07:56:12.274Z,100877.66
2018-05-17T07:58:41.584Z,100874.41
2018-05-17T08:01:11.082Z,100877.31
2018-05-17T08:03:40.375Z,100879.20
2018-05-17T08:06:09.706Z,100876.20
2018-05-17T08:08:39.024Z,100877.69
2018-05-17T08:11:09.023Z,100883.47
2018-05-17T08:13:38.350Z,100891.63
2018-05-17T08:16:08.438Z,100896.24
2018-05-17T08:18:37.769Z,100893.31
2018-05-17T08:21:07.182Z,100888.66
2018-05-17T08:23:37.306Z,100891.01
2018-05-17T08:26:07.441Z,100890.70
2018-05-17T08:28:37.548Z,100886.17
2018-05-17T08:31:07.613Z,100888.69
2018-05-17T08:33:36.931Z,100885.63
2018-05-17T08:36:06.297Z,100886.83
2018-05-17T08:38:35.890Z,100874.63
2018-05-17T08:41:05.972Z,100874.72
2018-05-17T08:43:35.294Z,100876.63
2018-05-17T08:46:05.428Z,100878.55
2018-05-17T08:48:35.520Z,100882.11
2018-05-17T08:51:04.828Z,100879.05
2018-05-17T08:53:34.251Z,100882.47
2018-05-17T08:56:03.655Z,100885.11
2018-05-17T08:58:32.989Z,100883.23
2018-05-17T09:01:02.300Z,100888.06
2018-05-17T09:03:31.635Z,100888.91
2018-05-17T09:06:00.948Z,100886.73
2018-05-17T09:08:30.296Z,100892.67
2018-05-17T09:10:59.617Z,100891.77
2018-05-17T09:13:28.960Z,100890.21
2018-05-17T09:15:58.292Z,100889.00
2018-05-17T09:18:28.503Z,100890.64
2018-05-17T09:20:57.805Z,100895.30
2018-05-17T09:23:28.004Z,100904.23
2018-05-17T09:25:57.330Z,100900.50
2018-05-17T09:28:27.233Z,100902.03
2018-05-17T09:30:56.758Z,100901.66
2018-05-17T09:33:26.097Z,100899.80
2018-05-17T09:35:55.420Z,100905.78
2018-05-17T09:38:24.723Z,100906.70
2018-05-17T09:40:54.152Z,100894.67
2018-05-17T09:43:23.478Z,100895.45
2018-05-17T09:45:53.589Z,100890.95
2018-05-17T09:48:22.933Z,100895.63
2018-05-17T09:50:52.254Z,100899.58
2018-05-17T09:53:21.593Z,100899.41
2018-05-17T09:55:50.922Z,100887.80
2018-05-17T09:58:20.230Z,100898.22
2018-05-17T10:00:49.581Z,100893.23
2018-05-17T10:03:18.925Z,100899.00
2018-05-17T10:05:49.044Z,100885.30
2018-05-17T10:08:19.149Z,100891.23
2018-05-17T10:10:49.243Z,100894.16
2018-05-17T10:13:18.600Z,100894.93
2018-05-17T10:15:47.901Z,100892.38
2018-05-17T10:18:17.258Z,100896.02
2018-05-17T10:20:46.573Z,100896.88
2018-05-17T10:23:15.920Z,100881.66
2018-05-17T10:25:45.261Z,100890.38
2018-05-17T10:28:15.251Z,100891.19
2018-05-17T10:30:44.599Z,100884.23
2018-05-17T10:33:13.945Z,100887.25
2018-05-17T10:35:44.724Z,100881.48
2018-05-17T10:38:14.744Z,100878.80
2018-05-17T10:40:44.788Z,100873.72
2018-05-17T10:43:14.893Z,100867.89
2018-05-17T10:45:44.213Z,100866.89
2018-05-17T10:48:14.301Z,100871.16
2018-05-17T10:50:43.636Z,100863.56
2018-05-17T10:53:12.972Z,100869.36
2018-05-17T10:55:42.307Z,100869.45
2018-05-17T10:58:12.132Z,100866.03
2018-05-17T11:00:41.461Z,100862.28
2018-05-17T11:03:11.675Z,100858.31
2018-05-17T11:05:40.988Z,100857.30
2018-05-17T11:08:11.089Z,100861.84
2018-05-17T11:10:40.408Z,100863.00
2018-05-17T11:13:10.509Z,100853.13
2018-05-17T11:15:39.836Z,100855.70
2018-05-17T11:18:09.922Z,100860.17
2018-05-17T11:20:39.254Z,100859.32
2018-05-17T11:23:09.342Z,100859.66
2018-05-17T11:25:38.685Z,100856.51
2018-05-17T11:28:08.793Z,100846.30
2018-05-17T11:30:38.163Z,100841.91
2018-05-17T11:33:07.545Z,100837.63
2018-05-17T11:35:36.810Z,100842.58
2018-05-17T11:38:06.928Z,100842.25
2018-05-17T11:40:36.232Z,100841.30
2018-05-17T11:43:06.348Z,100843.53
2018-05-17T11:45:35.654Z,100846.70
2018-05-17T11:48:05.742Z,100841.15
2018-05-17T11:50:35.089Z,100838.98
2018-05-17T11:53:05.199Z,100834.08
2018-05-17T11:55:34.539Z,100834.05
2018-05-17T11:58:03.862Z,100834.17
2018-05-17T12:00:33.153Z,100828.24
2018-05-17T12:03:02.500Z,100827.06
2018-05-17T12:05:31.790Z,100829.43
2018-05-17T12:08:01.127Z,100823.83
2018-05-17T12:10:31.249Z,100823.47
2018-05-17T12:13:01.323Z,100819.45
2018-05-17T12:15:30.637Z,100822.25
2018-05-17T12:17:59.977Z,100818.11
2018-05-17T12:20:30.069Z,100822.75
2018-05-17T12:22:59.506Z,100810.09
2018-05-17T12:25:28.789Z,100812.02
2018-05-17T12:27:59.284Z,100810.63
2018-05-17T12:30:28.590Z,100807.83
2018-05-17T12:32:57.934Z,100801.41
2018-05-17T12:35:28.049Z,100818.56
2018-05-17T12:37:58.216Z,100819.64
2018-05-17T12:40:27.626Z,100811.73
2018-05-17T12:42:56.957Z,100802.70
2018-05-17T12:45:26.328Z,100805.89
2018-05-17T12:47:55.694Z,100803.80
2018-05-17T12:50:25.084Z,100795.92
2018-05-17T12:52:54.468Z,100807.13
2018-05-17T12:55:23.909Z,100812.15
2018-05-17T12:57:54.109Z,100815.84
2018-05-17T13:00:23.427Z,100806.13
2018-05-17T13:02:53.591Z,100803.72
2018-05-17T13:05:24.920Z,100800.80
2018-05-17T13:07:54.822Z,100806.36
2018-05-17T13:10:24.950Z,100801.93
2018-05-17T13:12:55.163Z,100799.30
2018-05-17T13:15:24.762Z,100797.13
2018-05-17T13:17:54.850Z,100790.59
2018-05-17T13:20:24.184Z,100789.57
2018-05-17T13:22:54.305Z,100789.48
2018-05-17T13:25:23.636Z,100787.95
2018-05-17T13:27:52.953Z,100789.19
2018-05-17T13:30:22.357Z,100788.09
2018-05-17T13:32:52.381Z,100792.32
2018-05-17T13:35:21.685Z,100793.20
2018-05-17T13:37:51.049Z,100788.34
2018-05-17T13:40:21.158Z,100783.80
2018-05-17T13:42:50.529Z,100780.28
2018-05-17T13:45:19.848Z,100769.34
2018-05-17T13:47:49.192Z,100777.53
2018-05-17T13:50:18.531Z,100774.53
2018-05-17T13:52:47.868Z,100783.89
2018-05-17T13:55:17.757Z,100776.46
2018-05-17T13:57:48.138Z,100779.09
2018-05-17T14:00:18.342Z,100771.67
2018-05-17T14:02:47.689Z,100769.50
2018-05-17T14:05:16.997Z,100764.86
2018-05-17T14:07:46.394Z,100766.59
2018-05-17T14:10:15.733Z,100771.53
2018-05-17T14:12:45.144Z,100768.82
2018-05-17T14:15:14.551Z,100773.38
2018-05-17T14:17:43.825Z,100771.84
2018-05-17T14:20:13.340Z,100765.35
2018-05-17T14:22:42.692Z,100770.61
2018-05-17T14:25:12.753Z,100761.11
2018-05-17T14:27:42.092Z,100770.06
2018-05-17T14:30:11.420Z,100767.60
2018-05-17T14:32:41.498Z,100776.63
2018-05-17T14:35:10.845Z,100776.27
2018-05-17T14:37:40.906Z,100776.55
2018-05-17T14:40:10.231Z,100772.27
2018-05-17T14:42:39.544Z,100766.70
2018-05-17T14:45:08.861Z,100765.27
2018-05-17T14:47:38.961Z,100764.71
2018-05-17T14:50:08.300Z,100759.23
2018-05-17T14:52:37.631Z,100763.03
2018-05-17T14:55:06.975Z,100765.54
2018-05-17T14:57:37.339Z,100764.54
2018-05-17T15:00:07.795Z,100772.31
2018-05-17T15:02:38.078Z,100768.13
2018-05-17T15:05:08.161Z,100770.16
2018-05-17T15:07:37.488Z,100764.72
2018-05-17T15:10:07.700Z,100770.95
2018-05-17T15:12:40.700Z,100771.08
2018-05-17T15:15:10.153Z,100763.08
2018-05-17T15:17:39.470Z,100756.00
2018-05-17T15:20:08.802Z,100760.13
2018-05-17T15:22:38.137Z,100762.80
2018-05-17T15:25:07.452Z,100762.23
2018-05-17T15:27:36.907Z,100761.97
2018-05-17T15:30:06.146Z,100765.69
2018-05-17T15:32:36.277Z,100760.91
2018-05-17T15:35:05.590Z,100767.17
2018-05-17T15:37:35.589Z,100769.59
2018-05-17T15:40:04.925Z,100775.03
2018-05-17T15:42:34.250Z,100780.03
2018-05-17T15:45:03.583Z,100770.66
2018-05-17T15:47:33.650Z,100773.89
2018-05-17T15:50:02.957Z,100762.61
2018-05-17T15:52:32.306Z,100760.95
2018-05-17T15:55:01.621Z,100764.73
2018-05-17T15:57:31.584Z,100762.32
2018-05-17T16:00:00.906Z,100764.82
2018-05-17T16:02:30.232Z,100754.42
2018-05-17T16:05:01.126Z,100760.20
2018-05-17T16:07:30.457Z,100747.59
2018-05-17T16:09:59.794Z,100747.58
2018-05-17T16:12:29.893Z,100747.43
2018-05-17T16:15:00.210Z,100746.83
2018-05-17T16:17:29.377Z,100744.45
2018-05-17T16:19:58.832Z,100746.52
2018-05-17T16:22:28.286Z,100746.02
2018-05-17T16:24:57.618Z,100755.11
2018-05-17T16:27:26.944Z,100758.38
2018-05-17T16:29:57.056Z,100758.55
2018-05-17T16:32:27.146Z,100766.55
2018-05-17T16:34:56.481Z,100761.64
2018-05-17T16:37:26.583Z,100762.66
2018-05-17T16:39:55.949Z,100761.72
2018-05-17T16:42:25.271Z,100766.52
2018-05-17T16:44:54.596Z,100758.81
2018-05-17T16:47:23.937Z,100759.73
2018-05-17T16:49:53.257Z,100766.08
2018-05-17T16:52:22.602Z,100762.06
2018-05-17T16:54:51.924Z,100766.98
2018-05-17T16:57:21.388Z,100767.53
2018-05-17T16:59:50.718Z,100765.50
2018-05-17T17:02:20.055Z,100771.95
2018-05-17T17:04:49.465Z,100772.39
2018-05-17T17:07:18.747Z,100770.67
2018-05-17T17:09:48.232Z,100770.69
2018-05-17T17:12:17.565Z,100764.05
2018-05-17T17:14:47.653Z,100766.16
2018-05-17T17:17:17.287Z,100775.92
2018-05-17T17:19:46.688Z,100770.61
2018-05-17T17:22:15.990Z,100775.75
2018-05-17T17:24:46.106Z,100774.97
2018-05-17T17:27:15.457Z,100775.17
2018-05-17T17:29:45.602Z,100774.11
2018-05-17T17:32:14.921Z,100778.72
2018-05-17T17:34:44.230Z,100775.06
2018-05-17T17:37:14.353Z,100777.45
2018-05-17T17:39:43.654Z,100777.77
2018-05-17T17:42:13.764Z,100779.50
2018-05-17T17:44:43.149Z,100778.95
2018-05-17T17:47:12.487Z,100776.34
2018-05-17T17:49:41.859Z,100782.97
2018-05-17T17:52:11.160Z,100785.19
2018-05-17T17:54:40.502Z,100784.35
2018-05-17T17:57:10.572Z,100778.09
2018-05-17T17:59:39.901Z,100793.59
2018-05-17T18:02:09.221Z,100792.70
2018-05-17T18:04:39.305Z,100795.53
2018-05-17T18:07:08.668Z,100795.49
2018-05-17T18:09:43.153Z,100799.49
2018-05-17T18:12:18.481Z,100793.60
2018-05-17T18:14:53.037Z,100790.90
2018-05-17T18:17:27.734Z,100797.66
2018-05-17T18:20:03.066Z,100799.74
2018-05-17T18:22:37.666Z,100796.71
2018-05-17T18:25:12.305Z,100797.61
2018-05-17T18:27:46.826Z,100809.68
2018-05-17T18:30:21.365Z,100808.13
2018-05-17T18:32:56.042Z,100805.92
2018-05-17T18:35:30.540Z,100808.94
2018-05-17T18:38:05.073Z,100809.66
2018-05-17T18:40:39.512Z,100813.58
2018-05-17T18:43:14.135Z,100813.45
2018-05-17T18:45:48.642Z,100813.98
2018-05-17T18:48:23.892Z,100818.12
2018-05-17T18:50:58.500Z,100813.73
2018-05-17T18:53:33.194Z,100821.50
2018-05-17T18:56:07.924Z,100821.91
2018-05-17T18:58:42.418Z,100824.50
2018-05-17T19:01:17.225Z,100827.06
2018-05-17T19:03:51.779Z,100835.91
2018-05-17T19:06:26.422Z,100833.85
2018-05-17T19:09:00.968Z,100838.20
2018-05-17T19:11:35.462Z,100841.42
2018-05-17T19:14:10.164Z,100846.09
2018-05-17T19:16:45.482Z,100845.28
2018-05-17T19:19:20.280Z,100850.69
2018-05-17T19:21:55.002Z,100855.41
2018-05-17T19:24:29.636Z,100857.77
2018-05-17T19:27:04.219Z,100859.04
2018-05-17T19:29:38.907Z,100855.52
2018-05-17T19:32:13.406Z,100865.22
2018-05-17T19:34:47.883Z,100868.92
2018-05-17T19:37:22.679Z,100873.30
2018-05-17T19:39:57.377Z,100879.90
2018-05-17T19:42:31.952Z,100884.46
2018-05-17T19:45:07.189Z,100887.14
2018-05-17T19:47:41.806Z,100888.57
2018-05-17T19:50:16.495Z,100893.56
2018-05-17T19:52:52.736Z,100894.26
2018-05-17T19:55:28.097Z,100903.72
2018-05-17T19:58:03.446Z,100904.33
2018-05-17T20:00:38.045Z,100912.75
2018-05-17T20:03:12.449Z,100914.08
2018-05-17T20:05:46.987Z,100916.92
2018-05-17T20:08:21.549Z,100911.42
2018-05-17T20:10:55.972Z,100914.42
2018-05-17T20:13:30.571Z,100928.70
2018-05-17T20:16:05.891Z,100924.77
2018-05-17T20:18:40.568Z,100924.45
2018-05-17T20:21:15.128Z,100922.75
2018-05-17T20:23:50.299Z,100931.38
2018-05-17T20:26:24.915Z,100931.50
2018-05-17T20:28:59.578Z,100932.08
2018-05-17T20:31:34.149Z,100932.86
2018-05-17T20:34:08.707Z,100922.58
2018-05-17T20:36:43.351Z,100923.95
2018-05-17T20:39:17.829Z,100931.68
2018-05-17T20:41:52.260Z,100938.37
2018-05-17T20:44:26.900Z,100938.89
2018-05-17T20:47:01.533Z,100935.08
2018-05-17T20:49:36.057Z,100939.92
2018-05-17T20:52:10.778Z,100944.27
2018-05-17T20:54:45.336Z,100942.25
2018-05-17T20:57:19.949Z,100939.56
2018-05-17T20:59:54.591Z,100935.72
2018-05-17T21:02:28.995Z,100941.56
2018-05-17T21:05:03.616Z,100942.97
2018-05-17T21:07:38.245Z,100946.59
2018-05-17T21:10:12.725Z,100951.57
2018-05-17T21:12:47.205Z,100944.28
2018-05-17T21:15:21.743Z,100948.93
2018-05-17T21:17:56.457Z,100950.04
2018-05-17T21:20:31.038Z,100950.98
2018-05-17T21:23:05.694Z,100948.83
2018-05-17T21:25:40.317Z,100947.20
2018-05-17T21:28:14.808Z,100944.98
2018-05-17T21:30:49.309Z,100946.91
2018-05-17T21:33:23.914Z,100949.96
2018-05-17T21:35:58.340Z,100949.88
2018-05-17T21:38:32.889Z,100947.36
2018-05-17T21:41:07.474Z,100949.82
2018-05-17T21:43:41.944Z,100954.36
2018-05-17T21:46:16.639Z,100951.70
2018-05-17T21:48:51.181Z,100953.25
2018-05-17T21:51:25.846Z,100948.41
2018-05-17T21:54:00.543Z,100948.95
2018-05-17T21:56:35.119Z,100944.42
2018-05-17T21:59:09.780Z,100936.52
2018-05-17T22:01:44.994Z,100936.17
2018-05-17T22:04:19.616Z,100945.99
2018-05-17T22:06:54.874Z,100944.75
2018-05-17T22:09:30.239Z,100956.20
2018-05-17T22:12:04.852Z,100954.42
2018-05-17T22:14:39.444Z,100957.80
2018-05-17T22:17:14.063Z,100949.66
2018-05-17T22:19:48.670Z,100953.62
2018-05-17T22:22:23.084Z,100956.33
2018-05-17T22:24:57.782Z,100958.33
2018-05-17T22:27:32.539Z,100953.23
2018-05-17T22:30:07.769Z,100954.80
2018-05-17T22:32:42.266Z,100951.19
2018-05-17T22:35:17.596Z,100950.02
2018-05-17T22:37:52.961Z,100950.14
2018-05-17T22:40:27.578Z,100947.31
2018-05-17T22:43:02.822Z,100949.94
2018-05-17T22:45:37.395Z,100948.55
2018-05-17T22:48:12.105Z,100944.50
2018-05-17T22:50:46.705Z,100939.15
2018-05-17T22:53:21.970Z,100933.70
2018-05-17T22:55:56.455Z,100936.59
2018-05-17T22:58:38.069Z,100937.78
2018-05-17T23:01:12.799Z,100937.33
2018-05-17T23:03:47.405Z,100929.22
2018-05-17T23:06:21.846Z,100928.53
2018-05-17T23:08:56.434Z,100925.02
2018-05-17T23:11:31.046Z,100929.09
2018-05-17T23:14:06.445Z,100929.20
2018-05-17T23:16:41.800Z,100927.69
2018-05-17T23:19:16.281Z,100926.14
2018-05-17T23:21:50.863Z,100923.88
2018-05-17T23:24:25.478Z,100929.17
2018-05-17T23:27:00.121Z,100932.28
2018-05-17T23:29:34.719Z,100933.96
2018-05-17T23:32:09.403Z,100925.13
2018-05-17T23:34:44.705Z,100930.75
2018-05-17T23:37:20.267Z,100933.20
2018-05-17T23:39:54.991Z,100928.64
2018-05-17T23:42:29.686Z,100932.20
2018-05-17T23:45:04.220Z,100925.66
2018-05-17T23:47:38.741Z,100930.93
2018-05-17T23:50:13.384Z,100924.58
2018-05-17T23:52:47.996Z,100930.84
2018-05-17T23:55:22.614Z,100927.06
2018-05-17T23:57:57.193Z,100929.33
